createdAt,value
2022-10-23T00:01:14.635Z,12.52
2022-10-23T00:03:42.614Z,12.52
2022-10-23T00:06:10.756Z,12.51
2022-10-23T00:08:39.113Z,12.52
2022-10-23T00:11:08.717Z,12.51
2022-10-23T00:13:38.403Z,12.49
2022-10-23T00:16:06.988Z,12.48
2022-10-23T00:18:35.152Z,12.49
2022-10-23T00:21:03.341Z,12.48
2022-10-23T00:23:31.326Z,12.48
2022-10-23T00:26:00.195Z,12.46
2022-10-23T00:28:28.289Z,12.46
2022-10-23T00:30:57.684Z,12.45
2022-10-23T00:33:25.682Z,12.43
2022-10-23T00:35:53.703Z,12.40
2022-10-23T00:38:21.702Z,12.37
2022-10-23T00:43:27.614Z,12.32
2022-10-23T00:45:57.512Z,12.28
2022-10-23T00:48:26.537Z,12.27
2022-10-23T00:50:54.784Z,12.23
2022-10-23T00:53:23.774Z,12.21
2022-10-23T00:55:53.170Z,12.16
2022-10-23T00:58:21.671Z,12.14
2022-10-23T01:00:51.598Z,12.10
2022-10-23T01:03:24.113Z,12.07
2022-10-23T01:05:55.362Z,12.04
2022-10-23T01:08:29.619Z,12.01
2022-10-23T01:11:01.451Z,11.98
2022-10-23T01:13:36.372Z,11.96
2022-10-23T01:16:12.124Z,11.95
2022-10-23T01:18:46.624Z,11.91
2022-10-23T01:21:18.254Z,11.89
2022-10-23T01:24:02.555Z,11.85
2022-10-23T01:26:56.403Z,11.81
2022-10-23T01:29:31.011Z,11.78
2022-10-23T01:32:02.582Z,11.76
2022-10-23T01:34:33.869Z,11.74
2022-10-23T01:37:03.215Z,11.72
2022-10-23T01:39:35.078Z,11.70
2022-10-23T01:42:06.365Z,11.67
2022-10-23T01:44:37.421Z,11.65
2022-10-23T01:47:08.427Z,11.63
2022-10-23T01:49:37.512Z,11.60
2022-10-23T01:52:08.354Z,11.57
2022-10-23T01:54:39.709Z,11.55
2022-10-23T01:57:09.277Z,11.53
2022-10-23T01:59:42.614Z,11.50
2022-10-23T02:02:11.817Z,11.45
2022-10-23T02:04:42.510Z,11.40
2022-10-23T02:07:10.513Z,11.34
2022-10-23T02:09:39.178Z,11.30
2022-10-23T02:12:09.371Z,11.27
2022-10-23T02:14:47.549Z,11.24
2022-10-23T02:17:21.948Z,11.22
2022-10-23T02:19:56.893Z,11.22
2022-10-23T02:22:28.113Z,11.21
2022-10-23T02:25:00.745Z,11.18
2022-10-23T02:27:33.018Z,11.18
2022-10-23T02:30:06.319Z,11.18
2022-10-23T02:32:35.733Z,11.18
2022-10-23T02:35:04.074Z,11.19
2022-10-23T02:37:32.048Z,11.19
2022-10-23T02:40:00.066Z,11.20
2022-10-23T02:42:30.987Z,11.20
2022-10-23T02:45:07.240Z,11.23
2022-10-23T02:47:46.059Z,11.24
2022-10-23T02:50:19.649Z,11.25
2022-10-23T02:52:52.172Z,11.26
2022-10-23T02:55:30.801Z,11.29
2022-10-23T02:58:04.329Z,11.30
2022-10-23T03:00:34.101Z,11.30
2022-10-23T03:03:07.077Z,11.30
2022-10-23T03:05:37.779Z,11.31
2022-10-23T03:08:06.224Z,11.32
2022-10-23T03:10:34.293Z,11.32
2022-10-23T03:13:02.289Z,11.33
2022-10-23T03:15:30.265Z,11.31
2022-10-23T03:17:59.636Z,11.30
2022-10-23T03:20:27.616Z,11.28
2022-10-23T03:22:55.631Z,11.27
2022-10-23T03:25:23.601Z,11.27
2022-10-23T03:27:51.675Z,11.28
2022-10-23T03:30:19.907Z,11.27
2022-10-23T03:32:47.901Z,11.27
2022-10-23T03:35:17.354Z,11.27
2022-10-23T03:37:45.507Z,11.27
2022-10-23T03:40:13.653Z,11.27
2022-10-23T03:42:41.647Z,11.26
2022-10-23T03:45:10.403Z,11.26
2022-10-23T03:47:41.401Z,11.25
2022-10-23T03:50:10.938Z,11.24
2022-10-23T03:52:40.620Z,11.24
2022-10-23T03:55:10.075Z,11.25
2022-10-23T03:57:38.185Z,11.25
2022-10-23T04:00:07.620Z,11.25
2022-10-23T04:02:35.721Z,11.26
2022-10-23T04:05:03.861Z,11.27
2022-10-23T04:07:31.841Z,11.28
2022-10-23T04:10:01.213Z,11.29
2022-10-23T04:12:29.187Z,11.29
2022-10-23T04:14:57.241Z,11.27
2022-10-23T04:17:25.336Z,11.27
2022-10-23T04:19:53.425Z,11.26
2022-10-23T04:22:24.679Z,11.28
2022-10-23T04:24:55.526Z,11.30
2022-10-23T04:27:24.875Z,11.31
2022-10-23T04:29:55.498Z,11.32
2022-10-23T04:32:26.382Z,11.32
2022-10-23T04:34:54.357Z,11.32
2022-10-23T04:37:22.360Z,11.33
2022-10-23T04:39:50.321Z,11.34
2022-10-23T04:42:18.412Z,11.33
2022-10-23T04:44:47.789Z,11.35
2022-10-23T04:47:15.792Z,11.36
2022-10-23T04:49:43.822Z,11.38
2022-10-23T04:52:11.797Z,11.39
2022-10-23T04:54:40.339Z,11.41
2022-10-23T04:57:08.314Z,11.40
2022-10-23T04:59:36.541Z,11.41
2022-10-23T05:02:06.035Z,11.42
2022-10-23T05:04:34.065Z,11.44
2022-10-23T05:07:02.050Z,11.43
2022-10-23T05:09:30.074Z,11.42
2022-10-23T05:11:58.109Z,11.40
2022-10-23T05:14:26.153Z,11.40
2022-10-23T05:16:57.563Z,11.41
2022-10-23T05:19:30.625Z,11.39
2022-10-23T05:21:58.719Z,11.35
2022-10-23T05:24:27.331Z,11.33
2022-10-23T05:26:55.428Z,11.30
2022-10-23T05:29:23.416Z,11.27
2022-10-23T05:31:54.949Z,11.26
2022-10-23T05:34:25.577Z,11.24
2022-10-23T05:36:55.378Z,11.22
2022-10-23T05:39:23.449Z,11.19
2022-10-23T05:41:52.360Z,11.17
2022-10-23T05:44:20.367Z,11.14
2022-10-23T05:46:48.379Z,11.14
2022-10-23T05:49:16.347Z,11.11
2022-10-23T05:51:44.330Z,11.10
2022-10-23T05:54:13.695Z,11.09
2022-10-23T05:56:42.494Z,11.09
2022-10-23T05:59:10.889Z,11.08
2022-10-23T06:01:39.114Z,11.09
2022-10-23T06:04:07.224Z,11.09
2022-10-23T06:06:36.741Z,11.09
2022-10-23T06:09:04.968Z,11.07
2022-10-23T06:11:34.347Z,11.07
2022-10-23T06:14:02.325Z,11.05
2022-10-23T06:16:30.465Z,11.05
2022-10-23T06:18:58.532Z,11.04
2022-10-23T06:21:26.538Z,11.04
2022-10-23T06:23:56.038Z,11.03
2022-10-23T06:26:24.477Z,11.04
2022-10-23T06:28:53.826Z,11.06
2022-10-23T06:31:26.538Z,11.07
2022-10-23T06:33:54.572Z,11.11
2022-10-23T06:36:22.691Z,11.14
2022-10-23T06:38:51.981Z,11.16
2022-10-23T06:41:21.988Z,11.18
2022-10-23T06:43:50.813Z,11.18
2022-10-23T06:46:20.371Z,11.17
2022-10-23T06:48:48.480Z,11.18
2022-10-23T06:51:18.425Z,11.20
2022-10-23T06:53:46.960Z,11.23
2022-10-23T06:56:14.997Z,11.22
2022-10-23T06:58:43.011Z,11.23
2022-10-23T07:01:13.146Z,11.24
2022-10-23T07:03:42.734Z,11.24
2022-10-23T07:06:11.771Z,11.25
2022-10-23T07:08:40.095Z,11.26
2022-10-23T07:11:09.047Z,11.27
2022-10-23T07:13:38.569Z,11.29
2022-10-23T07:16:14.380Z,11.34
2022-10-23T07:18:44.119Z,11.39
2022-10-23T07:21:12.283Z,11.44
2022-10-23T07:23:40.382Z,11.49
2022-10-23T07:26:09.566Z,11.54
2022-10-23T07:28:37.756Z,11.58
2022-10-23T07:31:06.083Z,11.63
2022-10-23T07:33:34.118Z,11.65
2022-10-23T07:36:05.292Z,11.69
2022-10-23T07:38:33.310Z,11.72
2022-10-23T07:41:01.797Z,11.75
2022-10-23T07:43:29.964Z,11.77
2022-10-23T07:45:57.951Z,11.83
2022-10-23T07:48:27.268Z,11.89
2022-10-23T07:50:55.734Z,11.93
2022-10-23T07:53:26.752Z,12.00
2022-10-23T07:55:55.264Z,12.03
2022-10-23T07:58:23.515Z,12.04
2022-10-23T08:00:56.417Z,12.05
2022-10-23T08:03:24.541Z,12.07
2022-10-23T08:05:53.547Z,12.09
2022-10-23T08:08:21.550Z,12.09
2022-10-23T08:10:52.125Z,12.12
2022-10-23T08:13:21.077Z,12.14
2022-10-23T08:15:50.508Z,12.17
2022-10-23T08:18:18.531Z,12.23
2022-10-23T08:20:47.810Z,12.30
2022-10-23T08:23:18.526Z,12.33
2022-10-23T08:25:47.309Z,12.37
2022-10-23T08:28:16.887Z,12.39
2022-10-23T08:30:44.991Z,12.43
2022-10-23T08:33:13.011Z,12.47
2022-10-23T08:35:41.087Z,12.53
2022-10-23T08:38:09.111Z,12.58
2022-10-23T08:40:37.539Z,12.63
2022-10-23T08:43:13.649Z,12.66
2022-10-23T08:45:46.387Z,12.67
2022-10-23T08:48:19.547Z,12.70
2022-10-23T08:50:50.660Z,12.74
2022-10-23T08:53:23.263Z,12.81
2022-10-23T08:55:56.395Z,12.91
2022-10-23T08:58:29.453Z,13.02
2022-10-23T09:00:59.021Z,13.10
2022-10-23T09:03:27.567Z,13.18
2022-10-23T09:06:07.517Z,13.24
2022-10-23T09:08:48.257Z,13.28
2022-10-23T09:11:23.027Z,13.31
2022-10-23T09:14:21.702Z,13.35
2022-10-23T09:17:01.475Z,13.39
2022-10-23T09:19:31.315Z,13.48
2022-10-23T09:21:59.539Z,13.53
2022-10-23T09:24:31.620Z,13.53
2022-10-23T09:27:00.547Z,13.55
2022-10-23T09:29:31.871Z,13.60
2022-10-23T09:32:02.749Z,13.64
2022-10-23T09:34:32.299Z,13.69
2022-10-23T09:37:02.418Z,13.76
2022-10-23T09:39:31.650Z,13.84
2022-10-23T09:42:02.406Z,13.92
2022-10-23T09:44:31.566Z,13.99
2022-10-23T09:47:11.363Z,14.00
2022-10-23T09:49:47.343Z,14.00
2022-10-23T09:52:25.112Z,14.03
2022-10-23T09:54:56.342Z,14.06
2022-10-23T09:57:26.702Z,14.10
2022-10-23T09:59:56.251Z,14.14
2022-10-23T10:02:29.404Z,14.14
2022-10-23T10:04:57.648Z,14.09
2022-10-23T10:07:28.158Z,14.05
2022-10-23T10:09:58.985Z,14.02
2022-10-23T10:12:44.409Z,14.03
2022-10-23T10:15:18.922Z,14.08
2022-10-23T10:17:57.365Z,14.15
2022-10-23T10:20:44.587Z,14.23
2022-10-23T10:23:20.209Z,14.34
2022-10-23T10:25:56.241Z,14.42
2022-10-23T10:28:32.649Z,14.47
2022-10-23T10:31:10.188Z,14.52
2022-10-23T10:33:48.394Z,14.56
2022-10-23T10:39:01.224Z,14.69
2022-10-23T10:41:47.623Z,14.76
2022-10-23T10:44:35.986Z,14.80
2022-10-23T10:47:13.269Z,14.80
2022-10-23T10:49:50.322Z,14.83
2022-10-23T10:52:26.227Z,14.85
2022-10-23T10:54:59.218Z,14.88
2022-10-23T10:57:33.095Z,14.91
2022-10-23T11:00:04.603Z,14.92
2022-10-23T11:02:36.663Z,14.91
2022-10-23T11:05:15.858Z,14.87
2022-10-23T11:07:53.646Z,14.86
2022-10-23T11:10:21.681Z,14.87
2022-10-23T11:12:50.401Z,14.89
2022-10-23T11:15:22.090Z,14.95
2022-10-23T11:17:52.321Z,15.03
2022-10-23T11:20:42.354Z,15.12
2022-10-23T11:23:29.834Z,15.21
2022-10-23T11:26:07.318Z,15.34
2022-10-23T11:28:49.332Z,15.41
2022-10-23T11:31:24.733Z,15.51
2022-10-23T11:34:28.019Z,15.59
2022-10-23T11:37:01.351Z,15.65
2022-10-23T11:39:30.939Z,15.71
2022-10-23T11:42:00.990Z,15.74
2022-10-23T11:44:41.413Z,15.75
2022-10-23T11:47:29.524Z,15.75
2022-10-23T11:50:14.616Z,15.77
2022-10-23T11:53:15.768Z,15.82
2022-10-23T11:55:59.342Z,15.88
2022-10-23T11:58:32.008Z,15.91
2022-10-23T12:01:06.753Z,15.94
2022-10-23T12:03:43.477Z,15.96
2022-10-23T12:06:22.102Z,16.01
2022-10-23T12:08:55.149Z,16.03
2022-10-23T12:11:43.222Z,16.07
2022-10-23T12:14:28.829Z,16.11
2022-10-23T12:16:56.879Z,16.15
2022-10-23T12:19:26.659Z,16.15
2022-10-23T12:21:56.195Z,16.15
2022-10-23T12:24:57.592Z,16.16
2022-10-23T12:27:36.675Z,16.18
2022-10-23T12:30:15.195Z,16.21
2022-10-23T12:33:02.583Z,16.26
2022-10-23T12:35:54.151Z,16.31
2022-10-23T12:38:24.068Z,16.29
2022-10-23T12:40:55.034Z,16.30
2022-10-23T12:43:27.105Z,16.35
2022-10-23T12:45:56.626Z,16.42
2022-10-23T12:48:25.668Z,16.50
2022-10-23T12:50:55.358Z,16.57
2022-10-23T12:53:24.309Z,16.61
2022-10-23T12:55:57.348Z,16.64
2022-10-23T12:58:27.404Z,16.68
2022-10-23T13:00:57.103Z,16.70
2022-10-23T13:03:27.042Z,16.71
2022-10-23T13:05:58.668Z,16.73
2022-10-23T13:08:33.608Z,16.74
2022-10-23T13:11:03.112Z,16.76
2022-10-23T13:13:31.187Z,16.76
2022-10-23T13:15:59.178Z,16.75
2022-10-23T13:18:27.199Z,16.73
2022-10-23T13:20:59.867Z,16.72
2022-10-23T13:23:32.225Z,16.72
2022-10-23T13:26:03.002Z,16.72
2022-10-23T13:28:33.170Z,16.71
2022-10-23T13:31:04.635Z,16.69
2022-10-23T13:33:35.506Z,16.64
2022-10-23T13:36:07.311Z,16.62
2022-10-23T13:38:36.953Z,16.59
2022-10-23T13:41:07.636Z,16.55
2022-10-23T13:43:36.357Z,16.52
2022-10-23T13:46:04.657Z,16.50
2022-10-23T13:48:34.435Z,16.48
2022-10-23T13:51:12.874Z,16.44
2022-10-23T13:53:40.902Z,16.38
2022-10-23T13:56:12.205Z,16.36
2022-10-23T13:58:40.379Z,16.30
2022-10-23T14:01:13.488Z,16.28
2022-10-23T14:03:41.601Z,16.25
2022-10-23T14:06:09.647Z,16.22
2022-10-23T14:08:37.696Z,16.19
2022-10-23T14:11:05.882Z,16.17
2022-10-23T14:13:35.288Z,16.13
2022-10-23T14:16:03.316Z,16.07
2022-10-23T14:18:31.273Z,16.03
2022-10-23T14:21:01.120Z,15.98
2022-10-23T14:23:29.353Z,15.96
2022-10-23T14:26:03.372Z,15.92
2022-10-23T14:28:31.372Z,15.88
2022-10-23T14:31:04.888Z,15.86
2022-10-23T14:33:32.900Z,15.85
2022-10-23T14:36:00.926Z,15.82
2022-10-23T14:38:28.954Z,15.80
2022-10-23T14:40:56.975Z,15.77
2022-10-23T14:43:25.313Z,15.76
2022-10-23T14:45:53.358Z,15.74
2022-10-23T14:48:22.717Z,15.73
2022-10-23T14:50:50.926Z,15.72
2022-10-23T14:53:18.893Z,15.71
2022-10-23T14:55:46.898Z,15.69
2022-10-23T14:58:15.344Z,15.66
2022-10-23T15:00:43.348Z,15.63
2022-10-23T15:03:11.311Z,15.59
2022-10-23T15:05:43.787Z,15.55
2022-10-23T15:08:11.770Z,15.52
2022-10-23T15:10:40.108Z,15.50
2022-10-23T15:13:08.110Z,15.47
2022-10-23T15:15:36.075Z,15.45
2022-10-23T15:18:04.173Z,15.41
2022-10-23T15:20:32.208Z,15.38
2022-10-23T15:23:02.971Z,15.36
2022-10-23T15:25:30.997Z,15.32
2022-10-23T15:27:59.022Z,15.29
2022-10-23T15:30:27.168Z,15.26
2022-10-23T15:32:55.132Z,15.23
2022-10-23T15:35:24.402Z,15.19
2022-10-23T15:37:52.496Z,15.16
2022-10-23T15:40:21.852Z,15.12
2022-10-23T15:42:51.643Z,15.08
2022-10-23T15:45:19.659Z,15.05
2022-10-23T15:47:47.617Z,15.01
2022-10-23T15:50:15.629Z,14.97
2022-10-23T15:52:43.782Z,14.95
2022-10-23T15:55:12.404Z,14.93
2022-10-23T15:57:42.157Z,14.89
2022-10-23T16:00:11.618Z,14.86
2022-10-23T16:02:39.719Z,14.85
2022-10-23T16:05:08.206Z,14.83
2022-10-23T16:07:36.220Z,14.82
2022-10-23T16:10:04.612Z,14.82
2022-10-23T16:12:32.665Z,14.80
2022-10-23T16:15:02.024Z,14.78
2022-10-23T16:17:30.311Z,14.76
2022-10-23T16:19:58.309Z,14.73
2022-10-23T16:22:27.164Z,14.69
2022-10-23T16:24:55.397Z,14.67
2022-10-23T16:27:23.421Z,14.65
2022-10-23T16:29:51.520Z,14.61
2022-10-23T16:32:20.941Z,14.60
2022-10-23T16:34:48.938Z,14.57
2022-10-23T16:37:16.946Z,14.56
2022-10-23T16:39:44.927Z,14.54
2022-10-23T16:42:13.005Z,14.51
2022-10-23T16:44:41.015Z,14.49
2022-10-23T16:47:09.276Z,14.46
2022-10-23T16:49:38.627Z,14.43
2022-10-23T16:52:06.608Z,14.42
2022-10-23T16:54:34.639Z,14.41
2022-10-23T16:57:02.649Z,14.40
2022-10-23T16:59:30.683Z,14.39
2022-10-23T17:01:58.736Z,14.39
2022-10-23T17:04:26.808Z,14.36
2022-10-23T17:06:56.431Z,14.38
2022-10-23T17:09:26.484Z,14.38
2022-10-23T17:11:54.757Z,14.39
2022-10-23T17:14:25.042Z,14.38
2022-10-23T17:16:53.327Z,14.40
2022-10-23T17:19:43.717Z,14.40
2022-10-23T17:22:13.482Z,14.41
2022-10-23T17:24:45.130Z,14.42
2022-10-23T17:27:15.610Z,14.43
2022-10-23T17:29:43.668Z,14.43
2022-10-23T17:32:11.770Z,14.43
2022-10-23T17:34:39.804Z,14.43
2022-10-23T17:37:07.958Z,14.43
2022-10-23T17:39:37.370Z,14.44
2022-10-23T17:42:05.494Z,14.47
2022-10-23T17:44:33.529Z,14.48
2022-10-23T17:47:01.546Z,14.48
2022-10-23T17:49:29.575Z,14.48
2022-10-23T17:51:58.748Z,14.47
2022-10-23T17:54:27.899Z,14.47
2022-10-23T17:56:57.616Z,14.46
2022-10-23T17:59:25.599Z,14.44
2022-10-23T18:01:53.820Z,14.44
2022-10-23T18:04:22.157Z,14.43
2022-10-23T18:06:52.448Z,14.42
2022-10-23T18:09:21.311Z,14.40
2022-10-23T18:11:50.108Z,14.40
2022-10-23T18:14:20.781Z,14.40
2022-10-23T18:16:49.687Z,14.39
2022-10-23T18:19:19.073Z,14.36
2022-10-23T18:21:47.495Z,14.34
2022-10-23T18:24:15.915Z,14.32
2022-10-23T18:26:44.628Z,14.32
2022-10-23T18:29:13.788Z,14.33
2022-10-23T18:31:43.181Z,14.33
2022-10-23T18:34:16.403Z,14.35
2022-10-23T18:36:44.492Z,14.36
2022-10-23T18:39:15.039Z,14.38
2022-10-23T18:41:45.515Z,14.40
2022-10-23T18:44:17.014Z,14.41
2022-10-23T18:46:46.931Z,14.42
2022-10-23T18:49:15.824Z,14.46
2022-10-23T18:51:43.845Z,14.47
2022-10-23T18:54:14.187Z,14.50
2022-10-23T18:56:42.331Z,14.50
2022-10-23T18:59:13.301Z,14.52
2022-10-23T19:01:41.638Z,14.54
2022-10-23T19:04:14.064Z,14.55
2022-10-23T19:06:42.489Z,14.55
2022-10-23T19:09:11.610Z,14.58
2022-10-23T19:11:40.460Z,14.58
2022-10-23T19:14:08.529Z,14.58
2022-10-23T19:16:39.669Z,14.58
2022-10-23T19:19:14.763Z,14.57
2022-10-23T19:21:43.392Z,14.54
2022-10-23T19:24:14.782Z,14.51
2022-10-23T19:26:43.147Z,14.50
2022-10-23T19:29:14.177Z,14.49
2022-10-23T19:31:44.705Z,14.47
2022-10-23T19:34:14.047Z,14.47
2022-10-23T19:36:42.035Z,14.48
2022-10-23T19:39:10.584Z,14.48
2022-10-23T19:41:38.560Z,14.50
2022-10-23T19:44:06.592Z,14.51
2022-10-23T19:46:36.471Z,14.53
2022-10-23T19:49:04.645Z,14.56
2022-10-23T19:51:34.058Z,14.55
2022-10-23T19:54:02.130Z,14.56
2022-10-23T19:56:30.140Z,14.57
2022-10-23T19:58:58.102Z,14.56
2022-10-23T20:01:26.623Z,14.56
2022-10-23T20:03:55.468Z,14.56
2022-10-23T20:06:25.161Z,14.54
2022-10-23T20:08:54.900Z,14.54
2022-10-23T20:11:25.967Z,14.54
2022-10-23T20:13:54.029Z,14.56
2022-10-23T20:16:23.713Z,14.55
2022-10-23T20:18:52.104Z,14.56
2022-10-23T20:21:20.585Z,14.57
2022-10-23T20:23:48.973Z,14.58
2022-10-23T20:26:21.271Z,14.58
2022-10-23T20:28:52.487Z,14.60
2022-10-23T20:31:23.009Z,14.62
2022-10-23T20:33:51.567Z,14.65
2022-10-23T20:36:25.182Z,14.66
2022-10-23T20:38:53.614Z,14.69
2022-10-23T20:41:25.016Z,14.70
2022-10-23T20:43:53.033Z,14.72
2022-10-23T20:46:21.022Z,14.76
2022-10-23T20:48:49.059Z,14.78
2022-10-23T20:51:18.729Z,14.79
2022-10-23T20:53:47.748Z,14.81
2022-10-23T20:56:17.583Z,14.83
2022-10-23T20:58:47.055Z,14.84
2022-10-23T21:01:17.458Z,14.83
2022-10-23T21:03:50.147Z,14.84
2022-10-23T21:06:18.987Z,14.85
2022-10-23T21:08:47.079Z,14.87
2022-10-23T21:11:16.609Z,14.86
2022-10-23T21:13:46.545Z,14.86
2022-10-23T21:16:15.864Z,14.85
2022-10-23T21:18:46.371Z,14.85
2022-10-23T21:21:17.306Z,14.86
2022-10-23T21:23:45.920Z,14.84
2022-10-23T21:26:14.900Z,14.84
2022-10-23T21:28:55.678Z,14.84
2022-10-23T21:31:34.915Z,14.84
2022-10-23T21:34:03.237Z,14.83
2022-10-23T21:36:34.252Z,14.83
2022-10-23T21:39:07.827Z,14.84
2022-10-23T21:41:35.877Z,14.85
2022-10-23T21:44:06.575Z,14.86
2022-10-23T21:46:35.910Z,14.86
2022-10-23T21:49:04.605Z,14.88
2022-10-23T21:51:35.325Z,14.88
2022-10-23T21:54:03.389Z,14.89
2022-10-23T21:56:33.876Z,14.90
2022-10-23T21:59:03.138Z,14.91
2022-10-23T22:01:32.604Z,14.90
2022-10-23T22:04:00.676Z,14.91
2022-10-23T22:06:30.099Z,14.91
2022-10-23T22:08:59.624Z,14.89
2022-10-23T22:11:28.407Z,14.90
2022-10-23T22:13:57.067Z,14.88
2022-10-23T22:16:25.107Z,14.87
2022-10-23T22:18:54.476Z,14.84
2022-10-23T22:21:25.174Z,14.82
2022-10-23T22:23:55.505Z,14.81
2022-10-23T22:26:25.102Z,14.80
2022-10-23T22:28:54.738Z,14.79
2022-10-23T22:31:24.632Z,14.78
2022-10-23T22:33:54.594Z,14.77
2022-10-23T22:36:22.697Z,14.76
2022-10-23T22:38:50.763Z,14.75
2022-10-23T22:41:19.140Z,14.74
2022-10-23T22:43:47.201Z,14.76
2022-10-23T22:46:17.673Z,14.76
2022-10-23T22:48:46.785Z,14.77
2022-10-23T22:51:17.840Z,14.78
2022-10-23T22:53:45.893Z,14.79
2022-10-23T22:56:15.244Z,14.79
2022-10-23T22:58:43.519Z,14.80
2022-10-23T23:01:15.549Z,14.81
2022-10-23T23:03:44.413Z,14.81
2022-10-23T23:06:13.395Z,14.82
2022-10-23T23:08:43.385Z,14.82
2022-10-23T23:11:14.124Z,14.82
2022-10-23T23:13:43.064Z,14.81
2022-10-23T23:16:20.126Z,14.81
2022-10-23T23:18:48.247Z,14.82
2022-10-23T23:21:16.697Z,14.82
2022-10-23T23:23:46.512Z,14.83
2022-10-23T23:26:15.119Z,14.84
2022-10-23T23:28:43.126Z,14.85
2022-10-23T23:31:13.975Z,14.82
2022-10-23T23:33:41.950Z,14.81
2022-10-23T23:36:15.537Z,14.79
2022-10-23T23:38:43.498Z,14.77
2022-10-23T23:41:14.977Z,14.75
2022-10-23T23:43:43.141Z,14.71
2022-10-23T23:46:11.800Z,14.68
2022-10-23T23:48:39.892Z,14.66
2022-10-23T23:51:07.872Z,14.63
2022-10-23T23:53:35.877Z,14.62
2022-10-23T23:56:03.863Z,14.60
2022-10-23T23:58:33.204Z,14.57
